createdAt,value
2022-10-07T00:13:57.198Z,9.29
2022-10-07T00:29:01.255Z,9.16
2022-10-07T00:44:32.508Z,9.05
2022-10-07T00:59:38.416Z,8.78
2022-10-07T01:15:12.281Z,8.92
2022-10-07T01:30:16.206Z,8.98
2022-10-07T01:45:22.047Z,8.90
2022-10-07T02:00:25.617Z,8.73
2022-10-07T02:15:38.834Z,8.63
2022-10-07T02:30:45.917Z,8.52
2022-10-07T02:46:17.667Z,8.43
2022-10-07T03:01:28.074Z,8.44
2022-10-07T03:16:33.041Z,8.37
2022-10-07T03:31:37.538Z,8.32
2022-10-07T03:46:41.006Z,8.25
2022-10-07T04:01:44.693Z,8.23
2022-10-07T04:16:48.192Z,8.18
2022-10-07T04:31:52.235Z,8.05
2022-10-07T04:46:57.095Z,7.90
2022-10-07T05:02:02.233Z,7.81
2022-10-07T05:17:06.584Z,7.83
2022-10-07T05:32:10.911Z,8.02
2022-10-07T05:47:14.542Z,8.18
2022-10-07T06:02:19.338Z,8.40
2022-10-07T06:17:23.310Z,8.83
2022-10-07T06:32:30.557Z,10.17
2022-10-07T06:47:34.820Z,11.46
2022-10-07T07:02:38.108Z,12.80
2022-10-07T07:17:42.818Z,14.14
2022-10-07T07:32:47.514Z,15.28
2022-10-07T07:47:51.072Z,15.03
2022-10-07T08:02:55.110Z,15.42
2022-10-07T08:17:59.371Z,16.00
2022-10-07T08:33:02.691Z,16.61
2022-10-07T08:48:22.826Z,17.41
2022-10-07T09:03:44.444Z,17.83
2022-10-07T09:18:53.640Z,18.62
2022-10-07T09:33:57.205Z,18.91
2022-10-07T09:49:05.440Z,18.96
2022-10-07T10:04:27.402Z,19.82
2022-10-07T10:19:34.958Z,20.02
2022-10-07T10:35:15.303Z,20.39
2022-10-07T10:50:29.354Z,20.55
2022-10-07T11:05:36.921Z,21.01
2022-10-07T11:20:48.608Z,21.19
2022-10-07T11:35:57.816Z,21.45
2022-10-07T11:51:04.632Z,21.47
2022-10-07T12:06:13.538Z,21.86
2022-10-07T12:21:17.050Z,22.27
2022-10-07T12:36:23.976Z,22.24
2022-10-07T12:51:39.758Z,22.40
2022-10-07T13:07:19.184Z,22.75
2022-10-07T13:22:24.604Z,23.47
2022-10-07T13:37:36.341Z,30.41
2022-10-07T13:52:47.526Z,32.89
2022-10-07T14:07:58.963Z,33.66
2022-10-07T14:23:06.202Z,34.52
2022-10-07T14:38:19.669Z,34.40
2022-10-07T14:53:23.095Z,35.21
2022-10-07T15:08:26.681Z,30.82
2022-10-07T15:23:30.435Z,25.70
2022-10-07T15:38:33.455Z,27.63
2022-10-07T15:53:36.420Z,27.74
2022-10-07T16:08:40.112Z,22.75
2022-10-07T16:23:46.583Z,19.32
2022-10-07T16:38:52.605Z,17.48
2022-10-07T16:54:03.531Z,16.28
2022-10-07T17:09:07.075Z,15.41
2022-10-07T17:24:10.752Z,14.82
2022-10-07T17:39:14.998Z,14.53
2022-10-07T17:54:18.676Z,14.18
2022-10-07T18:21:58.895Z,13.76
2022-10-07T18:37:02.827Z,13.42
2022-10-07T18:52:07.604Z,13.14
2022-10-07T19:07:11.216Z,12.74
2022-10-07T19:22:17.268Z,12.40
2022-10-07T19:37:21.670Z,12.11
2022-10-07T19:52:26.683Z,11.88
2022-10-07T20:07:30.638Z,11.77
2022-10-07T20:22:34.708Z,11.58
2022-10-07T20:37:38.799Z,11.38
2022-10-07T20:52:42.597Z,11.28
2022-10-07T21:07:45.983Z,11.24
2022-10-07T21:22:49.955Z,11.46
2022-10-07T21:37:53.458Z,11.58
2022-10-07T21:52:56.878Z,11.86
2022-10-07T22:08:18.701Z,12.13
2022-10-07T22:23:21.813Z,12.21
2022-10-07T22:38:25.587Z,12.26
2022-10-07T22:53:28.824Z,12.47
2022-10-07T23:08:32.597Z,12.67
2022-10-07T23:23:37.374Z,12.78
2022-10-07T23:38:47.091Z,12.85
2022-10-07T23:53:50.968Z,13.05
